Time;durP1;ratioP1;P1;durP2;ratioP2;P2;SDS_P1;SDS_P2;PMS_P1;PMS_P2;Temp;Humidity;BMP_temperature;BMP_pressure;BME280_temperature;BME280_humidity;BME280_pressure;Samples;Min_cycle;Max_cycle;Signal;HPM_P1;HPM_P2
2023/12/13 00:02:22;;;;;;;235.80;141.65;;;;;;;11.58;nan;99029.06;5103214;27;20055;-64
2023/12/13 00:04:51;;;;;;;253.65;146.02;;;;;;;11.49;nan;99036.34;5105732;27;20497;-64
2023/12/13 00:07:21;;;;;;;233.18;145.05;;;;;;;11.54;nan;99038.41;5096513;28;20123;-64
2023/12/13 00:09:50;;;;;;;235.48;141.68;;;;;;;11.42;nan;99040.72;5102537;28;20105;-64
2023/12/13 00:12:20;;;;;;;228.52;140.63;;;;;;;11.60;nan;99045.59;5105432;28;20040;-64
2023/12/13 00:14:49;;;;;;;242.93;144.10;;;;;;;11.36;nan;99046.81;5105563;28;20051;-64
2023/12/13 00:17:20;;;;;;;228.10;137.27;;;;;;;11.57;nan;99048.63;5094804;28;20059;-64
2023/12/13 00:19:49;;;;;;;237.40;138.27;;;;;;;11.50;nan;99056.53;5101217;28;20372;-64
2023/12/13 00:22:19;;;;;;;232.68;136.98;;;;;;;11.63;nan;99054.00;5104811;28;20043;-64
2023/12/13 00:24:48;;;;;;;226.75;138.88;;;;;;;11.64;nan;99052.97;5105419;28;20048;-63
2023/12/13 00:27:19;;;;;;;230.05;136.77;;;;;;;11.48;nan;99061.19;5102509;28;20055;-63
2023/12/13 00:29:48;;;;;;;239.63;142.68;;;;;;;11.74;nan;99057.19;5097238;28;20510;-63
2023/12/13 00:32:18;;;;;;;230.75;140.20;;;;;;;11.94;nan;99056.34;5098241;28;20051;-63
2023/12/13 00:34:47;;;;;;;228.07;135.60;;;;;;;12.05;nan;99063.78;5105586;28;20062;-63
2023/12/13 00:37:17;;;;;;;216.18;136.68;;;;;;;11.78;nan;99051.28;5104000;28;20047;-63
2023/12/13 00:39:46;;;;;;;229.85;139.30;;;;;;;11.89;nan;99055.28;5104144;28;20488;-64
2023/12/13 00:42:16;;;;;;;221.52;134.82;;;;;;;11.68;nan;99053.44;5104512;28;20066;-64
2023/12/13 00:44:46;;;;;;;232.60;136.80;;;;;;;11.63;nan;99058.50;5105316;28;20060;-64
2023/12/13 00:47:15;;;;;;;228.02;137.52;;;;;;;11.48;nan;99066.50;5103832;28;20058;-64
2023/12/13 00:49:45;;;;;;;229.10;135.85;;;;;;;11.45;nan;99069.56;5105191;28;20142;-64
2023/12/13 00:52:14;;;;;;;234.93;139.73;;;;;;;11.74;nan;99073.91;5104541;28;20063;-64
2023/12/13 00:54:44;;;;;;;222.63;135.55;;;;;;;11.34;nan;99071.84;5104209;28;20052;-64
2023/12/13 00:57:13;;;;;;;216.38;131.80;;;;;;;11.56;nan;99081.47;5102945;28;20047;-64
2023/12/13 00:59:43;;;;;;;225.32;134.35;;;;;;;11.35;nan;99082.28;5103766;28;20116;-64
2023/12/13 01:02:14;;;;;;;228.32;135.77;;;;;;;11.46;nan;99081.78;5103336;28;20109;-64
2023/12/13 01:04:44;;;;;;;225.32;134.70;;;;;;;11.31;nan;99096.09;5104307;28;20662;-64
2023/12/13 01:07:14;;;;;;;229.50;136.75;;;;;;;11.05;nan;99089.50;5103904;28;20040;-64
2023/12/13 01:09:43;;;;;;;230.57;138.40;;;;;;;11.42;nan;99093.78;5104552;28;20421;-63
2023/12/13 01:12:15;;;;;;;233.32;136.02;;;;;;;11.35;nan;99095.53;5099681;28;20044;-64
2023/12/13 01:14:44;;;;;;;237.65;140.30;;;;;;;11.24;nan;99090.75;5108412;28;20051;-63
2023/12/13 01:17:14;;;;;;;239.63;147.93;;;;;;;11.12;nan;99100.16;5107871;28;20085;-64
2023/12/13 01:19:43;;;;;;;234.55;141.73;;;;;;;10.98;nan;99103.66;5108655;28;20586;-63
2023/12/13 01:22:13;;;;;;;243.35;145.70;;;;;;;11.17;nan;99106.56;5105544;27;20542;-63
2023/12/13 01:24:42;;;;;;;264.40;160.52;;;;;;;11.15;nan;99100.63;5107260;28;20498;-64
2023/12/13 01:27:12;;;;;;;258.75;154.23;;;;;;;11.07;nan;99110.50;5107872;28;20047;-64
2023/12/13 01:29:41;;;;;;;254.80;153.45;;;;;;;11.24;nan;99112.75;5108250;28;20047;-64
2023/12/13 01:32:11;;;;;;;257.23;153.65;;;;;;;10.96;nan;99117.13;5106710;28;20421;-64
2023/12/13 01:34:40;;;;;;;245.98;147.63;;;;;;;11.09;nan;99124.41;5107917;28;20052;-63
2023/12/13 01:37:10;;;;;;;248.80;149.38;;;;;;;10.94;nan;99126.25;5107261;28;20047;-64
2023/12/13 01:39:41;;;;;;;260.98;153.45;;;;;;;11.04;nan;99134.75;5106662;28;20058;-64
2023/12/13 01:42:11;;;;;;;248.85;151.98;;;;;;;11.10;nan;99141.97;5107572;28;20134;-63
2023/12/13 01:44:41;;;;;;;260.27;157.77;;;;;;;10.96;nan;99146.25;5108673;27;20579;-63
2023/12/13 01:47:10;;;;;;;259.23;158.07;;;;;;;10.92;nan;99145.00;5108094;27;20459;-63
2023/12/13 01:49:40;;;;;;;261.08;159.55;;;;;;;11.12;nan;99145.22;5107924;28;20121;-64
2023/12/13 01:52:10;;;;;;;274.15;166.55;;;;;;;10.93;nan;99156.41;5102742;28;20143;-63
2023/12/13 01:54:41;;;;;;;275.00;168.38;;;;;;;11.08;nan;99163.34;5104219;28;20079;-64
2023/12/13 01:57:13;;;;;;;281.23;167.25;;;;;;;10.92;nan;99152.94;5105738;28;20128;-64
2023/12/13 01:59:42;;;;;;;269.60;164.45;;;;;;;11.03;nan;99157.75;5106369;28;20058;-64
2023/12/13 02:02:12;;;;;;;277.60;167.63;;;;;;;11.18;nan;99163.88;5102733;28;20144;-64
2023/12/13 02:04:42;;;;;;;288.65;172.32;;;;;;;11.07;nan;99168.81;5107891;28;20851;-64
2023/12/13 02:07:13;;;;;;;282.73;168.40;;;;;;;11.11;nan;99162.97;5107447;28;20063;-64
2023/12/13 02:09:43;;;;;;;272.30;159.48;;;;;;;11.16;nan;99173.00;5103787;28;20051;-62
2023/12/13 02:12:12;;;;;;;267.30;158.43;;;;;;;11.14;nan;99167.91;5106741;28;20356;-63
2023/12/13 02:14:42;;;;;;;274.55;161.95;;;;;;;10.93;nan;99177.63;5107580;27;20480;-63
2023/12/13 02:17:13;;;;;;;260.00;153.77;;;;;;;10.86;nan;99174.88;5105482;27;20717;-63
2023/12/13 02:19:42;;;;;;;261.80;153.85;;;;;;;10.86;nan;99171.38;5107586;28;20051;-63
2023/12/13 02:22:12;;;;;;;252.60;154.75;;;;;;;11.15;nan;99182.78;5095691;28;20047;-63
2023/12/13 02:24:45;;;;;;;260.35;155.38;;;;;;;11.10;nan;99189.69;5105782;28;20482;-63
2023/12/13 02:27:14;;;;;;;;;;;;;;;11.39;nan;99200.25;5107164;27;20046;-63
2023/12/13 02:29:47;;;;;;;249.65;150.65;;;;;;;11.15;nan;99192.59;5106913;28;19990;-64
2023/12/13 02:32:17;;;;;;;239.07;147.38;;;;;;;11.25;nan;99195.75;5103926;28;20156;-63
2023/12/13 02:34:46;;;;;;;239.88;146.63;;;;;;;11.49;nan;99202.59;5080417;28;20056;-63
2023/12/13 02:37:16;;;;;;;251.50;150.40;;;;;;;11.56;nan;99201.66;5104512;28;20152;-63
2023/12/13 02:39:45;;;;;;;255.20;150.20;;;;;;;11.64;nan;99200.72;5106698;28;20048;-63
2023/12/13 02:42:15;;;;;;;240.73;143.88;;;;;;;11.47;nan;99205.44;5104416;28;20043;-63
2023/12/13 02:44:44;;;;;;;236.32;145.27;;;;;;;11.42;nan;99214.97;5107221;27;20055;-63
2023/12/13 02:47:14;;;;;;;248.65;149.30;;;;;;;11.24;nan;99194.94;5105953;27;20046;-63
2023/12/13 02:49:44;;;;;;;247.18;146.90;;;;;;;11.68;nan;99202.03;5106880;28;20051;-63
2023/12/13 02:52:13;;;;;;;244.00;145.73;;;;;;;11.60;nan;99218.03;5106311;28;20127;-63
2023/12/13 02:54:43;;;;;;;239.45;143.73;;;;;;;11.82;nan;99221.56;5108418;27;20067;-63
2023/12/13 02:57:13;;;;;;;234.27;147.02;;;;;;;11.95;nan;99229.69;5096678;28;20051;-63
2023/12/13 02:59:43;;;;;;;231.70;143.63;;;;;;;11.83;nan;99232.00;5106489;28;20055;-63
2023/12/13 03:02:13;;;;;;;248.32;148.88;;;;;;;11.99;nan;99233.63;5105599;28;20089;-63
2023/12/13 03:04:42;;;;;;;239.90;146.15;;;;;;;12.34;nan;99232.75;5106757;27;20051;-63
2023/12/13 03:07:12;;;;;;;258.35;151.93;;;;;;;12.52;nan;99241.06;5104661;27;20047;-63
2023/12/13 03:09:42;;;;;;;254.50;147.30;;;;;;;12.54;nan;99238.22;5104987;28;20755;-63
2023/12/13 03:12:12;;;;;;;249.77;152.32;;;;;;;12.60;nan;99237.44;5105252;28;20126;-63
2023/12/13 03:14:41;;;;;;;246.07;151.38;;;;;;;12.82;nan;99246.22;5106687;27;20055;-64
2023/12/13 03:17:11;;;;;;;241.15;146.00;;;;;;;12.76;nan;99244.31;5105952;28;20043;-63
2023/12/13 03:19:40;;;;;;;245.77;149.48;;;;;;;12.75;nan;99251.47;5106576;28;20557;-63
2023/12/13 03:22:09;;;;;;;246.02;151.40;;;;;;;12.79;nan;99252.72;5105589;28;20532;-64
2023/12/13 03:24:39;;;;;;;242.45;146.23;;;;;;;13.17;nan;99265.69;5106083;28;20112;-63
2023/12/13 03:27:09;;;;;;;249.27;148.10;;;;;;;13.38;nan;99265.63;5104715;28;20625;-64
2023/12/13 03:29:39;;;;;;;250.13;147.68;;;;;;;13.40;nan;99271.56;5105785;28;20538;-64
2023/12/13 03:32:08;;;;;;;258.67;151.20;;;;;;;13.71;nan;99269.28;5104081;27;20040;-64
2023/12/13 03:34:38;;;;;;;257.17;149.40;;;;;;;14.31;nan;99268.41;5103474;27;20134;-66
2023/12/13 03:37:07;;;;;;;257.08;149.43;;;;;;;14.57;nan;99272.97;5101351;28;20044;-64
2023/12/13 03:39:37;;;;;;;248.00;148.63;;;;;;;14.69;nan;99276.66;5104792;27;20051;-64
2023/12/13 03:42:06;;;;;;;247.25;146.85;;;;;;;14.65;nan;99274.63;5104325;28;20139;-64
2023/12/13 03:44:35;;;;;;;248.02;146.43;;;;;;;14.82;nan;99278.53;5094551;28;20133;-64
2023/12/13 03:47:05;;;;;;;272.52;159.18;;;;;;;14.91;nan;99282.66;5097980;28;20043;-64
2023/12/13 03:49:34;;;;;;;265.75;157.20;;;;;;;15.21;nan;99273.16;5105885;28;20051;-64
2023/12/13 03:52:04;;;;;;;263.92;158.00;;;;;;;15.33;nan;99283.19;5093433;28;20416;-64
2023/12/13 03:54:34;;;;;;;276.52;162.77;;;;;;;15.60;nan;99279.47;5092541;28;20592;-64
2023/12/13 03:57:03;;;;;;;265.90;159.30;;;;;;;15.57;nan;99288.72;5103246;27;20057;-65
2023/12/13 03:59:33;;;;;;;278.50;163.38;;;;;;;15.93;nan;99293.50;5101978;28;20108;-64
2023/12/13 04:02:02;;;;;;;283.45;168.90;;;;;;;16.31;nan;99301.53;5104433;27;20039;-64
2023/12/13 04:04:34;;;;;;;308.08;180.95;;;;;;;16.64;nan;99312.03;5104706;28;20495;-64
2023/12/13 04:07:08;;;;;;;322.40;191.55;;;;;;;16.82;nan;99305.94;5087060;28;20063;-64
2023/12/13 04:09:38;;;;;;;319.60;192.65;;;;;;;17.31;nan;99307.78;5104664;28;20438;-64
2023/12/13 04:12:07;;;;;;;343.73;202.45;;;;;;;17.04;nan;99302.66;5105148;28;20055;-65
2023/12/13 04:14:37;;;;;;;365.75;212.20;;;;;;;17.31;nan;99313.13;5105688;28;20048;-64
2023/12/13 04:17:06;;;;;;;345.30;211.10;;;;;;;17.48;nan;99311.53;5103055;28;20040;-64
2023/12/13 04:19:36;;;;;;;359.80;209.30;;;;;;;17.99;nan;99321.06;5106457;28;20063;-64
2023/12/13 04:22:05;;;;;;;346.13;211.15;;;;;;;17.73;nan;99328.41;5104602;28;20516;-64
2023/12/13 04:24:35;;;;;;;346.38;209.27;;;;;;;17.64;nan;99323.53;5104076;28;20036;-65
2023/12/13 04:27:05;;;;;;;328.20;205.80;;;;;;;17.43;nan;99327.44;5105203;28;20642;-65
2023/12/13 04:29:35;;;;;;;341.88;213.13;;;;;;;18.09;nan;99332.91;5097726;28;20058;-64
2023/12/13 04:32:04;;;;;;;328.50;205.70;;;;;;;17.88;nan;99331.50;5104727;28;20499;-65
2023/12/13 04:34:34;;;;;;;323.40;206.70;;;;;;;18.12;nan;99337.00;5118526;27;20039;-64
2023/12/13 04:37:04;;;;;;;337.50;208.10;;;;;;;18.33;nan;99331.97;5110109;27;20097;-65
2023/12/13 04:39:33;;;;;;;315.83;200.43;;;;;;;18.09;nan;99337.47;5105029;28;20130;-64
2023/12/13 04:42:05;;;;;;;298.58;184.20;;;;;;;17.30;nan;99339.09;5101033;28;20097;-65
2023/12/13 04:44:34;;;;;;;284.70;175.73;;;;;;;17.83;nan;99336.75;5102805;28;20383;-64
2023/12/13 04:47:04;;;;;;;273.05;175.75;;;;;;;18.11;nan;99336.19;5105004;28;20134;-65
2023/12/13 04:49:33;;;;;;;225.48;147.38;;;;;;;18.14;nan;99330.38;5100012;28;20047;-64
2023/12/13 04:52:03;;;;;;;229.15;146.25;;;;;;;18.22;nan;99334.59;5117176;27;20051;-63
2023/12/13 04:54:35;;;;;;;204.25;129.63;;;;;;;17.63;nan;99333.44;5104376;27;20047;-63
2023/12/13 04:57:05;;;;;;;181.10;116.85;;;;;;;17.27;nan;99338.72;5110011;27;20043;-64
2023/12/13 04:59:35;;;;;;;169.10;116.80;;;;;;;17.70;nan;99347.56;5114817;27;20047;-64
2023/12/13 05:02:04;;;;;;;157.90;101.30;;;;;;;17.82;nan;99337.78;5112236;27;20455;-63
2023/12/13 05:04:34;;;;;;;148.98;101.43;;;;;;;17.52;nan;99342.97;5107947;27;20047;-65
2023/12/13 05:07:08;;;;;;;159.80;101.03;;;;;;;17.46;nan;99343.06;5105730;27;20046;-64
2023/12/13 05:09:38;;;;;;;164.27;104.25;;;;;;;17.49;nan;99338.09;5115462;27;20342;-65
2023/12/13 05:12:07;;;;;;;166.02;103.03;;;;;;;17.36;nan;99335.53;5116436;27;20396;-63
2023/12/13 05:14:37;;;;;;;144.70;95.07;;;;;;;17.38;nan;99333.47;5116857;27;20151;-64
2023/12/13 05:17:07;;;;;;;135.07;89.72;;;;;;;17.55;nan;99323.00;5078136;27;20051;-65
2023/12/13 05:19:37;;;;;;;139.80;87.30;;;;;;;17.52;nan;99323.44;5114763;27;20051;-65
2023/12/13 05:22:07;;;;;;;132.52;85.45;;;;;;;17.59;nan;99312.69;5110768;27;20055;-65
2023/12/13 05:24:37;;;;;;;121.57;85.53;;;;;;;18.09;nan;99316.00;5108013;28;20052;-64
2023/12/13 05:27:06;;;;;;;137.90;90.35;;;;;;;17.85;nan;99321.25;5108309;28;20063;-64
2023/12/13 05:29:35;;;;;;;145.27;92.55;;;;;;;17.93;nan;99318.25;5108364;28;20467;-64
2023/12/13 05:32:05;;;;;;;121.05;80.13;;;;;;;17.73;nan;99312.31;5108335;28;20040;-64
2023/12/13 05:34:34;;;;;;;123.13;79.70;;;;;;;17.69;nan;99313.81;5108001;27;20079;-64
2023/12/13 05:37:05;;;;;;;123.30;79.47;;;;;;;17.80;nan;99307.69;5092652;28;20047;-64
2023/12/13 05:39:35;;;;;;;118.13;78.97;;;;;;;18.10;nan;99315.75;5107612;27;20059;-64
2023/12/13 05:42:04;;;;;;;114.47;77.35;;;;;;;18.03;nan;99312.38;5097642;27;20104;-65
2023/12/13 05:44:34;;;;;;;119.50;71.82;;;;;;;18.07;nan;99313.53;5089270;28;20154;-64
2023/12/13 05:47:04;;;;;;;115.15;75.22;;;;;;;18.29;nan;99311.19;5107124;28;20058;-65
2023/12/13 05:49:33;;;;;;;114.82;77.93;;;;;;;18.73;nan;99309.97;5089199;28;20061;-64
2023/12/13 05:52:03;;;;;;;108.32;70.22;;;;;;;18.66;nan;99307.41;5095447;28;20050;-68
2023/12/13 05:54:33;;;;;;;112.93;68.95;;;;;;;18.78;nan;99304.72;5105473;27;20060;-65
2023/12/13 05:57:04;;;;;;;108.65;69.20;;;;;;;19.09;nan;99300.91;5102257;28;20545;-65
2023/12/13 05:59:33;;;;;;;119.43;73.88;;;;;;;19.04;nan;99303.47;5085312;28;20059;-64
2023/12/13 06:02:03;;;;;;;117.50;74.55;;;;;;;18.92;nan;99305.34;5105978;27;20051;-63
2023/12/13 06:04:33;;;;;;;128.10;78.78;;;;;;;19.05;nan;99305.13;5106998;28;20043;-65
2023/12/13 06:07:02;;;;;;;123.45;80.45;;;;;;;19.43;nan;99299.28;5102664;27;20075;-66
2023/12/13 06:09:32;;;;;;;127.03;84.03;;;;;;;19.31;nan;99310.03;5097972;28;20054;-64
2023/12/13 06:12:03;;;;;;;131.30;84.70;;;;;;;19.22;nan;99301.50;5093870;28;20466;-68
2023/12/13 06:14:33;;;;;;;149.65;89.63;;;;;;;19.05;nan;99297.88;5104146;28;20051;-64
2023/12/13 06:17:03;;;;;;;145.02;94.63;;;;;;;19.39;nan;99284.66;5106394;28;20055;-63
2023/12/13 06:19:32;;;;;;;159.85;103.80;;;;;;;19.74;nan;99283.59;5096162;28;20059;-63
2023/12/13 06:22:02;;;;;;;161.27;106.10;;;;;;;19.68;nan;99283.75;5096711;28;20047;-70
2023/12/13 06:24:33;;;;;;;157.52;105.10;;;;;;;20.06;nan;99280.47;5100167;28;20043;-70
2023/12/13 06:27:03;;;;;;;147.93;96.50;;;;;;;20.09;nan;99267.34;5062701;28;20168;-71
2023/12/13 06:29:33;;;;;;;143.25;94.95;;;;;;;20.08;nan;99267.59;5090565;28;20040;-70
2023/12/13 06:32:02;;;;;;;130.20;86.15;;;;;;;20.02;nan;99260.50;5071577;28;20049;-71
2023/12/13 06:34:31;;;;;;;120.65;81.63;;;;;;;20.36;nan;99256.84;5069079;28;20048;-71
2023/12/13 06:37:01;;;;;;;121.45;79.63;;;;;;;20.52;nan;99252.56;5084275;28;20044;-72
2023/12/13 06:39:30;;;;;;;115.63;76.97;;;;;;;20.08;nan;99246.09;5085538;28;20056;-72
2023/12/13 06:41:59;;;;;;;97.88;65.65;;;;;;;19.78;nan;99240.13;5081536;28;20052;-72
2023/12/13 06:44:29;;;;;;;106.65;67.78;;;;;;;20.15;nan;99233.31;5090022;28;20141;-70
2023/12/13 06:46:59;;;;;;;86.32;60.08;;;;;;;20.22;nan;99241.25;5078452;28;20048;-71
2023/12/13 06:49:30;;;;;;;102.82;65.60;;;;;;;20.22;nan;99236.69;5085242;28;20040;-70
2023/12/13 06:52:02;;;;;;;121.80;78.50;;;;;;;20.35;nan;99235.59;5070170;28;20075;-70
2023/12/13 06:54:32;;;;;;;130.93;85.38;;;;;;;20.24;nan;99231.03;5080642;28;20054;-71
2023/12/13 06:57:03;;;;;;;134.98;86.15;;;;;;;20.38;nan;99221.63;5087963;28;20070;-70
2023/12/13 06:59:33;;;;;;;125.75;83.88;;;;;;;20.34;nan;99221.31;5066870;28;20040;-69
2023/12/13 07:02:03;;;;;;;132.30;83.72;;;;;;;20.31;nan;99221.81;5066661;28;20068;-70
2023/12/13 07:04:35;;;;;;;122.15;80.40;;;;;;;20.59;nan;99226.28;5051139;28;20051;-67
2023/12/13 07:07:05;;;;;;;121.68;72.53;;;;;;;20.58;nan;99216.59;5083363;28;20040;-69
2023/12/13 07:09:34;;;;;;;89.50;57.17;;;;;;;20.38;nan;99214.38;5077056;28;20113;-69
2023/12/13 07:12:04;;;;;;;90.20;58.38;;;;;;;20.54;nan;99210.06;5079772;28;20047;-69
2023/12/13 07:14:35;;;;;;;88.30;58.13;;;;;;;20.48;nan;99214.56;5082060;28;20754;-67
2023/12/13 07:17:04;;;;;;;87.90;59.65;;;;;;;20.55;nan;99204.44;5081159;28;20516;-69
2023/12/13 07:19:35;;;;;;;91.00;57.25;;;;;;;20.18;nan;99203.22;5083867;28;20066;-70
2023/12/13 07:22:05;;;;;;;92.22;58.50;;;;;;;20.18;nan;99204.03;5066163;28;20067;-64
2023/12/13 07:24:34;;;;;;;85.93;57.47;;;;;;;20.48;nan;99201.13;5061924;28;20051;-65
2023/12/13 07:27:04;;;;;;;92.53;58.35;;;;;;;20.40;nan;99196.09;5103567;28;20047;-64
2023/12/13 07:29:34;;;;;;;89.25;57.67;;;;;;;20.72;nan;99196.34;5106196;28;20158;-65
2023/12/13 07:32:04;;;;;;;97.20;60.20;;;;;;;20.72;nan;99192.84;5080673;27;20064;-65
2023/12/13 07:34:34;;;;;;;85.78;58.22;;;;;;;20.68;nan;99187.16;5103729;28;20040;-65
2023/12/13 07:37:03;;;;;;;87.65;60.85;;;;;;;20.61;nan;99183.81;5103238;27;20134;-70
2023/12/13 07:39:35;;;;;;;90.50;60.30;;;;;;;20.60;nan;99180.31;5105562;27;20205;-69
2023/12/13 07:42:05;;;;;;;84.95;56.30;;;;;;;20.51;nan;99175.56;5096104;28;20456;-70
2023/12/13 07:44:35;;;;;;;80.75;55.28;;;;;;;20.58;nan;99166.25;5105191;27;20067;-70
2023/12/13 07:47:04;;;;;;;77.70;53.88;;;;;;;20.62;nan;99167.41;5092899;28;20109;-70
2023/12/13 07:49:34;;;;;;;78.10;52.97;;;;;;;20.54;nan;99170.50;5096219;28;20046;-71
2023/12/13 07:52:06;;;;;;;87.47;51.40;;;;;;;20.52;nan;99159.19;5102631;28;20055;-71
2023/12/13 07:54:36;;;;;;;79.18;51.22;;;;;;;20.37;nan;99155.44;5105583;27;20047;-70
2023/12/13 07:57:06;;;;;;;69.90;48.05;;;;;;;20.25;nan;99144.72;5096321;27;20044;-71
2023/12/13 07:59:35;;;;;;;77.57;51.67;;;;;;;20.30;nan;99146.72;5100884;28;20054;-69
2023/12/13 08:02:06;;;;;;;68.65;49.45;;;;;;;20.49;nan;99145.44;5100005;28;20433;-71
2023/12/13 08:04:35;;;;;;;73.03;49.60;;;;;;;20.34;nan;99140.59;5099184;28;20048;-70
2023/12/13 08:07:05;;;;;;;74.18;51.08;;;;;;;20.17;nan;99139.75;5099857;27;20039;-71
2023/12/13 08:09:34;;;;;;;73.05;49.33;;;;;;;20.40;nan;99136.91;5092522;27;20493;-65
2023/12/13 08:12:05;;;;;;;71.65;49.25;;;;;;;20.39;nan;99129.13;5103010;28;20039;-65
2023/12/13 08:14:37;;;;;;;69.00;49.30;;;;;;;20.35;nan;99131.47;5088938;28;20048;-65
2023/12/13 08:17:08;;;;;;;75.38;51.30;;;;;;;20.50;nan;99123.63;5074580;28;20052;-65
2023/12/13 08:19:38;;;;;;;74.22;48.50;;;;;;;20.53;nan;99116.97;5097898;28;20083;-65
2023/12/13 08:22:08;;;;;;;73.00;49.80;;;;;;;20.40;nan;99126.16;5102667;28;20040;-66
2023/12/13 08:24:38;;;;;;;75.68;49.30;;;;;;;20.34;nan;99121.78;5098762;28;20095;-64
2023/12/13 08:27:08;;;;;;;77.18;50.85;;;;;;;20.50;nan;99112.03;5099289;28;20048;-64
2023/12/13 08:29:37;;;;;;;78.53;52.17;;;;;;;20.54;nan;99113.19;5101323;28;20148;-64
2023/12/13 08:32:07;;;;;;;70.68;51.20;;;;;;;20.49;nan;99111.22;5101384;28;20071;-66
2023/12/13 08:34:37;;;;;;;78.63;49.72;;;;;;;20.38;nan;99103.25;5089269;28;20051;-65
2023/12/13 08:37:06;;;;;;;74.03;50.58;;;;;;;20.57;nan;99110.84;5097970;28;20047;-65
2023/12/13 08:39:36;;;;;;;68.65;49.25;;;;;;;20.49;nan;99105.84;5099527;28;20043;-65
2023/12/13 08:42:06;;;;;;;79.35;50.63;;;;;;;20.61;nan;99103.91;5096011;28;20066;-65
2023/12/13 08:44:35;;;;;;;73.80;51.90;;;;;;;20.54;nan;99097.84;5095690;28;20122;-65
2023/12/13 08:47:05;;;;;;;80.88;54.42;;;;;;;20.51;nan;99105.59;5098737;28;20051;-67
2023/12/13 08:49:34;;;;;;;79.82;55.80;;;;;;;20.49;nan;99100.47;5090611;28;20047;-67
2023/12/13 08:52:04;;;;;;;82.15;53.63;;;;;;;20.54;nan;99097.84;5102969;28;20089;-67
2023/12/13 08:54:34;;;;;;;86.38;58.22;;;;;;;20.60;nan;99104.13;5096652;28;20047;-67
2023/12/13 08:57:03;;;;;;;92.93;54.30;;;;;;;20.36;nan;99089.22;5101801;28;20062;-67
2023/12/13 08:59:33;;;;;;;82.72;54.15;;;;;;;20.37;nan;99099.75;5099287;28;20135;-67
2023/12/13 09:02:03;;;;;;;74.60;52.40;;;;;;;20.39;nan;99105.72;5098005;28;20047;-67
2023/12/13 09:04:32;;;;;;;74.55;49.53;;;;;;;20.48;nan;99096.16;5095746;28;20428;-65
2023/12/13 09:07:03;;;;;;;78.05;49.45;;;;;;;20.46;nan;99094.75;5080042;28;20422;-66
2023/12/13 09:09:32;;;;;;;69.18;48.60;;;;;;;20.42;nan;99089.06;5089958;28;20146;-66
2023/12/13 09:12:02;;;;;;;79.97;49.05;;;;;;;20.39;nan;99089.56;5091447;28;20052;-66
2023/12/13 09:14:32;;;;;;;69.55;46.38;;;;;;;20.45;nan;99091.25;5067463;28;20067;-71
2023/12/13 09:17:04;;;;;;;64.28;44.75;;;;;;;20.36;nan;99090.03;5103003;27;20050;-71
2023/12/13 09:19:34;;;;;;;69.43;43.25;;;;;;;20.37;nan;99091.69;5092910;28;20063;-71
2023/12/13 09:22:04;;;;;;;67.72;39.20;;;;;;;20.37;nan;99094.38;5093572;28;20052;-71
2023/12/13 09:24:34;;;;;;;61.17;39.72;;;;;;;20.37;nan;99083.59;5097776;28;20119;-71
2023/12/13 09:27:04;;;;;;;69.25;42.42;;;;;;;20.38;nan;99082.56;5120563;27;20048;-71
2023/12/13 09:29:34;;;;;;;64.30;43.40;;;;;;;20.39;nan;99081.50;5105575;28;20043;-71
2023/12/13 09:32:03;;;;;;;65.15;43.60;;;;;;;20.38;nan;99079.03;5101076;28;20526;-70
2023/12/13 09:34:33;;;;;;;70.25;46.88;;;;;;;20.27;nan;99078.03;5105809;27;20047;-70
2023/12/13 09:37:02;;;;;;;80.93;49.38;;;;;;;20.29;nan;99078.63;5101081;27;20689;-71
2023/12/13 09:39:32;;;;;;;69.28;48.22;;;;;;;20.22;nan;99063.72;5105694;27;20050;-71
2023/12/13 09:42:04;;;;;;;84.15;51.15;;;;;;;20.17;nan;99075.22;5108769;27;20454;-70
2023/12/13 09:44:39;;;;;;;76.47;53.92;;;;;;;20.17;nan;99072.53;5100549;28;20040;-70
2023/12/13 09:47:09;;;;;;;81.03;54.70;;;;;;;20.13;nan;99064.13;5114280;27;20352;-70
2023/12/13 09:49:41;;;;;;;87.05;53.67;;;;;;;20.17;nan;99059.88;5116713;27;20561;-71
2023/12/13 09:52:11;;;;;;;84.25;54.30;;;;;;;20.16;nan;99057.44;5103966;27;20051;-69
2023/12/13 09:54:44;;;;;;;87.28;54.28;;;;;;;20.04;nan;99062.91;5100639;27;20354;-71
2023/12/13 09:57:15;;;;;;;78.83;51.33;;;;;;;20.08;nan;99061.38;5105238;27;20479;-70
2023/12/13 09:59:46;;;;;;;79.72;52.40;;;;;;;20.08;nan;99058.66;5110533;27;20294;-65
2023/12/13 10:02:17;;;;;;;84.63;54.90;;;;;;;20.06;nan;99054.59;5109854;27;20051;-66
2023/12/13 10:04:48;;;;;;;86.03;54.28;;;;;;;20.01;nan;99059.88;5097386;27;20051;-67
2023/12/13 10:07:18;;;;;;;81.38;53.85;;;;;;;20.06;nan;99055.41;5087296;28;20048;-65
2023/12/13 10:09:49;;;;;;;80.95;54.85;;;;;;;20.04;nan;99045.97;5100179;28;20543;-65
2023/12/13 10:12:18;;;;;;;74.82;50.45;;;;;;;20.02;nan;99062.31;5091656;28;20153;-65
2023/12/13 10:14:49;;;;;;;78.45;50.97;;;;;;;19.99;nan;99048.56;5088008;28;20116;-66
2023/12/13 10:17:23;;;;;;;76.63;50.72;;;;;;;19.94;nan;99051.97;5070816;28;20051;-67
2023/12/13 10:19:53;;;;;;;76.95;49.05;;;;;;;19.92;nan;99051.41;5075725;28;20082;-64
2023/12/13 10:22:22;;;;;;;74.28;47.17;;;;;;;19.93;nan;99058.41;5081542;28;20491;-65
2023/12/13 10:24:52;;;;;;;75.55;49.05;;;;;;;19.83;nan;99044.78;5059127;28;20056;-65
2023/12/13 10:27:22;;;;;;;65.40;46.20;;;;;;;19.78;nan;99051.97;5097435;27;20503;-65
2023/12/13 10:29:52;;;;;;;77.60;48.78;;;;;;;19.80;nan;99047.16;5094467;28;20750;-64
2023/12/13 10:32:22;;;;;;;76.50;48.13;;;;;;;19.73;nan;99045.47;5105605;27;20131;-68
2023/12/13 10:34:51;;;;;;;70.78;47.25;;;;;;;19.70;nan;99045.13;5099092;28;20071;-66
2023/12/13 10:37:24;;;;;;;75.18;48.38;;;;;;;19.59;nan;99046.00;5097776;28;20040;-65
2023/12/13 10:39:59;;;;;;;75.97;49.85;;;;;;;19.57;nan;99048.09;5098547;28;20104;-65
2023/12/13 10:42:29;;;;;;;73.43;48.90;;;;;;;19.49;nan;99054.69;5107736;27;20515;-64
2023/12/13 10:45:00;;;;;;;74.43;48.20;;;;;;;19.45;nan;99053.56;5110199;27;20151;-65
2023/12/13 10:47:36;;;;;;;74.53;48.05;;;;;;;19.42;nan;99048.63;5100921;27;20044;-66
2023/12/13 10:50:08;;;;;;;74.22;48.17;;;;;;;19.34;nan;99035.56;5107980;27;20734;-66
2023/12/13 10:52:39;;;;;;;69.03;46.75;;;;;;;19.24;nan;99036.22;5109976;27;20154;-65
2023/12/13 10:55:09;;;;;;;72.10;46.65;;;;;;;19.20;nan;99031.56;5112428;27;20174;-63
2023/12/13 10:57:38;;;;;;;76.55;46.17;;;;;;;19.16;nan;99020.47;5104072;27;20063;-64
2023/12/13 11:00:09;;;;;;;72.07;46.60;;;;;;;19.09;nan;99037.78;5104875;27;20131;-64
2023/12/13 11:03:03;;;;;;;66.82;46.78;;;;;;;18.99;nan;99043.78;5090279;27;20116;-64
2023/12/13 11:05:32;;;;;;;80.97;48.45;;;;;;;18.89;nan;99043.59;5103777;27;20063;-64
2023/12/13 11:08:12;;;;;;;69.78;48.80;;;;;;;18.75;nan;99036.84;5111341;27;20048;-64
2023/12/13 11:10:54;;;;;;;76.10;48.03;;;;;;;18.62;nan;99040.59;5104829;27;20052;-63
2023/12/13 11:13:23;;;;;;;71.78;47.58;;;;;;;18.54;nan;99038.28;5106789;27;20104;-65
2023/12/13 11:15:54;;;;;;;84.47;49.53;;;;;;;18.38;nan;99042.47;5109286;27;20474;-64
2023/12/13 11:18:25;;;;;;;74.95;50.78;;;;;;;18.33;nan;99039.66;5101738;27;20057;-65
2023/12/13 11:20:55;;;;;;;82.00;51.35;;;;;;;18.12;nan;99037.56;5110380;27;20147;-64
2023/12/13 11:23:26;;;;;;;77.38;50.83;;;;;;;18.05;nan;99036.88;5112374;27;20076;-65
2023/12/13 11:25:56;;;;;;;76.45;50.83;;;;;;;17.94;nan;99032.31;5107555;27;20091;-65
2023/12/13 11:28:26;;;;;;;84.43;51.08;;;;;;;17.82;nan;99028.81;5104413;27;20051;-71
2023/12/13 11:30:57;;;;;;;76.22;51.15;;;;;;;17.71;nan;99025.06;5110925;27;20100;-70
2023/12/13 11:33:36;;;;;;;85.53;55.42;;;;;;;17.73;nan;99017.63;5109685;27;20054;-70
2023/12/13 11:36:11;;;;;;;90.38;55.20;;;;;;;17.67;nan;99018.53;5107360;27;20054;-70
2023/12/13 11:38:41;;;;;;;86.38;54.42;;;;;;;17.61;nan;99014.09;5106479;27;20056;-70